createdAt,value
2023-04-16T00:01:06.111Z,55.70
2023-04-16T00:03:53.607Z,55.78
2023-04-16T00:06:41.167Z,55.63
2023-04-16T00:09:28.552Z,55.55
2023-04-16T00:12:15.904Z,55.75
2023-04-16T00:15:03.233Z,55.81
2023-04-16T00:17:50.640Z,55.79
2023-04-16T00:20:37.992Z,55.95
2023-04-16T00:23:25.324Z,56.09
2023-04-16T00:26:12.610Z,56.21
2023-04-16T00:28:59.932Z,56.17
2023-04-16T00:31:47.238Z,55.99
2023-04-16T00:34:34.573Z,55.97
2023-04-16T00:37:21.931Z,55.95
2023-04-16T00:40:09.269Z,56.01
2023-04-16T00:42:57.617Z,56.00
2023-04-16T00:45:44.974Z,55.90
2023-04-16T00:48:32.305Z,55.95
2023-04-16T00:51:19.697Z,56.08
2023-04-16T00:54:07.002Z,55.86
2023-04-16T00:56:54.310Z,56.05
2023-04-16T00:59:41.633Z,56.04
2023-04-16T01:02:29.078Z,56.21
2023-04-16T01:05:16.481Z,56.25
2023-04-16T01:08:03.793Z,56.11
2023-04-16T01:10:51.236Z,56.37
2023-04-16T01:13:38.541Z,56.25
2023-04-16T01:16:25.909Z,56.33
2023-04-16T01:19:13.233Z,56.49
2023-04-16T01:22:00.589Z,56.58
2023-04-16T01:24:47.911Z,56.62
2023-04-16T01:27:35.250Z,56.59
2023-04-16T01:30:22.606Z,56.46
2023-04-16T01:33:09.914Z,56.70
2023-04-16T01:35:57.228Z,56.68
2023-04-16T01:38:44.557Z,56.61
2023-04-16T01:41:31.896Z,56.59
2023-04-16T01:44:19.222Z,56.33
2023-04-16T01:47:06.643Z,56.25
2023-04-16T01:49:53.970Z,56.24
2023-04-16T01:52:41.326Z,56.16
2023-04-16T01:55:28.663Z,56.11
2023-04-16T01:58:16.029Z,56.05
2023-04-16T02:01:03.377Z,56.12
2023-04-16T02:03:50.874Z,56.12
2023-04-16T02:06:38.264Z,56.16
2023-04-16T02:09:25.621Z,56.24
2023-04-16T02:12:12.919Z,56.30
2023-04-16T02:15:00.447Z,56.22
2023-04-16T02:17:47.789Z,56.27
2023-04-16T02:20:35.189Z,56.37
2023-04-16T02:23:22.493Z,56.37
2023-04-16T02:26:09.809Z,56.38
2023-04-16T02:28:57.109Z,56.36
2023-04-16T02:31:44.614Z,56.37
2023-04-16T02:34:31.984Z,56.14
2023-04-16T02:37:19.697Z,55.99
2023-04-16T02:40:06.992Z,55.74
2023-04-16T02:42:54.295Z,55.62
2023-04-16T02:45:41.636Z,55.58
2023-04-16T02:48:28.984Z,55.44
2023-04-16T02:51:16.278Z,55.37
2023-04-16T02:54:03.631Z,55.19
2023-04-16T02:56:50.933Z,55.14
2023-04-16T02:59:38.258Z,55.07
2023-04-16T03:02:25.646Z,55.13
2023-04-16T03:05:13.019Z,55.08
2023-04-16T03:08:00.293Z,54.96
2023-04-16T03:10:47.602Z,54.91
2023-04-16T03:13:34.905Z,54.98
2023-04-16T03:16:22.407Z,55.03
2023-04-16T03:19:10.112Z,55.07
2023-04-16T03:21:57.581Z,54.91
2023-04-16T03:24:44.861Z,54.92
2023-04-16T03:27:32.210Z,55.07
2023-04-16T03:30:19.517Z,55.03
2023-04-16T03:33:06.897Z,55.17
2023-04-16T03:35:54.224Z,55.00
2023-04-16T03:38:41.523Z,55.25
2023-04-16T03:41:28.849Z,55.22
2023-04-16T03:44:16.189Z,55.29
2023-04-16T03:47:03.519Z,55.48
2023-04-16T03:49:50.917Z,55.41
2023-04-16T03:52:38.256Z,55.57
2023-04-16T03:55:25.578Z,55.60
2023-04-16T03:58:12.898Z,55.61
2023-04-16T04:01:00.273Z,55.74
2023-04-16T04:03:47.905Z,55.78
2023-04-16T04:06:35.386Z,55.69
2023-04-16T04:09:22.697Z,55.70
2023-04-16T04:12:10.029Z,55.55
2023-04-16T04:14:57.393Z,55.70
2023-04-16T04:17:44.725Z,55.73
2023-04-16T04:20:32.037Z,55.61
2023-04-16T04:23:19.361Z,55.72
2023-04-16T04:26:06.666Z,55.65
2023-04-16T04:28:54.381Z,55.69
2023-04-16T04:31:41.747Z,55.54
2023-04-16T04:34:29.139Z,55.51
2023-04-16T04:37:16.517Z,55.34
2023-04-16T04:40:03.849Z,55.13
2023-04-16T04:42:51.153Z,55.09
2023-04-16T04:45:38.520Z,55.29
2023-04-16T04:48:25.886Z,55.19
2023-04-16T04:51:13.198Z,55.24
2023-04-16T04:54:00.497Z,55.26
2023-04-16T04:56:47.817Z,55.19
2023-04-16T04:59:35.098Z,55.39
2023-04-16T05:02:22.522Z,55.26
2023-04-16T05:05:09.981Z,55.31
2023-04-16T05:07:57.349Z,55.39
2023-04-16T05:10:44.671Z,55.33
2023-04-16T05:13:32.013Z,55.37
2023-04-16T05:16:20.214Z,55.44
2023-04-16T05:19:07.706Z,55.25
2023-04-16T05:21:55.116Z,55.25
2023-04-16T05:24:42.423Z,55.29
2023-04-16T05:27:29.741Z,55.17
2023-04-16T05:30:17.067Z,55.36
2023-04-16T05:33:04.379Z,55.47
2023-04-16T05:35:51.724Z,55.58
2023-04-16T05:38:39.017Z,55.58
2023-04-16T05:41:26.364Z,55.76
2023-04-16T05:44:13.699Z,55.84
2023-04-16T05:47:01.025Z,56.02
2023-04-16T05:49:48.314Z,55.79
2023-04-16T05:52:35.887Z,55.86
2023-04-16T05:55:23.205Z,55.82
2023-04-16T05:58:10.528Z,55.95
2023-04-16T06:00:57.872Z,55.92
2023-04-16T06:03:45.401Z,55.83
2023-04-16T06:06:32.841Z,56.06
2023-04-16T06:09:20.228Z,56.01
2023-04-16T06:12:07.532Z,56.00
2023-04-16T06:14:54.853Z,55.93
2023-04-16T06:17:42.209Z,55.87
2023-04-16T06:20:29.573Z,55.89
2023-04-16T06:23:16.882Z,55.85
2023-04-16T06:26:04.239Z,55.67
2023-04-16T06:28:51.549Z,55.63
2023-04-16T06:31:38.903Z,55.78
2023-04-16T06:34:26.217Z,55.85
2023-04-16T06:37:13.518Z,55.82
2023-04-16T06:40:00.926Z,55.91
2023-04-16T06:42:48.265Z,55.89
2023-04-16T06:45:35.584Z,56.12
2023-04-16T06:48:22.919Z,55.91
2023-04-16T06:51:10.239Z,56.10
2023-04-16T06:53:57.582Z,55.99
2023-04-16T06:56:44.882Z,56.16
2023-04-16T06:59:32.204Z,56.14
2023-04-16T07:02:19.599Z,55.91
2023-04-16T07:05:07.088Z,55.96
2023-04-16T07:07:54.399Z,55.89
2023-04-16T07:10:41.741Z,55.78
2023-04-16T07:13:29.023Z,55.66
2023-04-16T07:16:16.397Z,55.97
2023-04-16T07:19:03.726Z,55.82
2023-04-16T07:21:51.666Z,55.69
2023-04-16T07:24:38.942Z,55.58
2023-04-16T07:27:26.297Z,55.62
2023-04-16T07:30:13.614Z,55.43
2023-04-16T07:33:00.937Z,55.22
2023-04-16T07:35:48.277Z,55.40
2023-04-16T07:38:35.627Z,55.08
2023-04-16T07:41:22.940Z,54.85
2023-04-16T07:44:10.282Z,54.96
2023-04-16T07:46:57.626Z,54.81
2023-04-16T07:49:44.997Z,54.64
2023-04-16T07:52:33.719Z,54.21
2023-04-16T07:55:21.051Z,53.97
2023-04-16T07:57:48.274Z,53.91
2023-04-16T08:00:15.296Z,53.75
2023-04-16T08:02:42.426Z,53.47
2023-04-16T08:05:09.592Z,53.14
2023-04-16T08:07:36.634Z,52.94
2023-04-16T08:10:06.119Z,52.73
2023-04-16T08:12:33.160Z,52.69
2023-04-16T08:15:00.150Z,52.64
2023-04-16T08:17:28.335Z,52.34
2023-04-16T08:19:55.349Z,52.26
2023-04-16T08:22:22.371Z,52.31
2023-04-16T08:24:49.415Z,51.90
2023-04-16T08:27:19.978Z,51.86
2023-04-16T08:29:47.436Z,51.64
2023-04-16T08:32:14.456Z,51.67
2023-04-16T08:34:41.764Z,51.69
2023-04-16T08:37:08.834Z,51.73
2023-04-16T08:39:36.169Z,51.48
2023-04-16T08:42:03.190Z,51.50
2023-04-16T08:44:30.297Z,51.22
2023-04-16T08:46:57.405Z,51.38
2023-04-16T08:49:24.535Z,51.06
2023-04-16T08:51:51.554Z,50.85
2023-04-16T08:54:18.638Z,50.83
2023-04-16T08:56:45.810Z,51.04
2023-04-16T08:59:12.828Z,51.04
2023-04-16T09:01:39.918Z,50.82
2023-04-16T09:04:07.176Z,50.84
2023-04-16T09:06:34.388Z,50.82
2023-04-16T09:09:01.425Z,50.76
2023-04-16T09:11:28.439Z,50.78
2023-04-16T09:13:55.540Z,50.87
2023-04-16T09:16:22.701Z,50.66
2023-04-16T09:18:49.757Z,50.60
2023-04-16T09:21:16.785Z,50.25
2023-04-16T09:23:43.844Z,50.38
2023-04-16T09:26:10.980Z,50.42
2023-04-16T09:28:38.082Z,50.26
2023-04-16T09:31:05.177Z,50.42
2023-04-16T09:33:33.800Z,50.48
2023-04-16T09:36:01.968Z,50.33
2023-04-16T09:38:29.020Z,50.40
2023-04-16T09:40:56.029Z,50.72
2023-04-16T09:43:23.047Z,50.60
2023-04-16T09:45:50.136Z,50.38
2023-04-16T09:48:17.150Z,50.49
2023-04-16T09:50:44.229Z,50.77
2023-04-16T09:53:11.275Z,51.10
2023-04-16T09:55:38.305Z,51.25
2023-04-16T09:58:05.384Z,51.41
2023-04-16T10:00:32.515Z,51.62
2023-04-16T10:03:02.027Z,51.66
2023-04-16T10:05:29.841Z,51.88
2023-04-16T10:07:57.084Z,52.24
2023-04-16T10:10:26.938Z,52.46
2023-04-16T10:12:54.019Z,52.61
2023-04-16T10:15:21.037Z,53.03
2023-04-16T10:17:48.129Z,53.26
2023-04-16T10:20:16.740Z,53.31
2023-04-16T10:22:44.320Z,53.56
2023-04-16T10:25:11.428Z,53.92
2023-04-16T10:27:38.454Z,53.89
2023-04-16T10:30:05.741Z,53.92
2023-04-16T10:32:32.827Z,53.86
2023-04-16T10:34:59.968Z,53.81
2023-04-16T10:37:28.035Z,53.02
2023-04-16T10:39:55.062Z,53.19
2023-04-16T10:42:22.489Z,52.70
2023-04-16T10:44:49.741Z,52.77
2023-04-16T10:47:16.870Z,52.23
2023-04-16T10:49:44.171Z,52.48
2023-04-16T10:52:11.291Z,51.95
2023-04-16T10:54:38.364Z,51.88
2023-04-16T10:57:05.509Z,52.02
2023-04-16T10:59:32.538Z,51.64
2023-04-16T11:01:59.675Z,50.99
2023-04-16T11:04:26.953Z,50.60
2023-04-16T11:06:54.104Z,50.64
2023-04-16T11:09:21.195Z,50.38
2023-04-16T11:11:48.300Z,50.49
2023-04-16T11:14:15.408Z,49.90
2023-04-16T11:16:42.510Z,49.88
2023-04-16T11:19:09.781Z,49.29
2023-04-16T11:21:37.009Z,49.43
2023-04-16T11:24:04.359Z,49.13
2023-04-16T11:26:31.452Z,49.15
2023-04-16T11:28:58.466Z,49.05
2023-04-16T11:31:25.552Z,48.71
2023-04-16T11:33:52.713Z,48.76
2023-04-16T11:36:19.859Z,48.67
2023-04-16T11:38:46.925Z,48.92
2023-04-16T11:41:13.962Z,48.76
2023-04-16T11:43:43.454Z,48.42
2023-04-16T11:46:20.546Z,48.11
2023-04-16T11:48:53.749Z,47.89
2023-04-16T11:51:20.826Z,48.45
2023-04-16T11:53:47.862Z,48.19
2023-04-16T11:56:14.886Z,48.47
2023-04-16T11:58:44.396Z,48.35
2023-04-16T12:01:11.429Z,48.14
2023-04-16T12:03:38.748Z,48.25
2023-04-16T12:06:05.921Z,48.27
2023-04-16T12:08:33.059Z,47.85
2023-04-16T12:11:00.100Z,48.00
2023-04-16T12:13:27.287Z,48.03
2023-04-16T12:15:54.533Z,48.02
2023-04-16T12:18:21.545Z,47.91
2023-04-16T12:20:48.597Z,48.29
2023-04-16T12:23:15.604Z,47.90
2023-04-16T12:25:42.649Z,48.07
2023-04-16T12:28:09.685Z,47.73
2023-04-16T12:30:36.744Z,47.64
2023-04-16T12:33:03.870Z,47.50
2023-04-16T12:35:30.931Z,47.54
2023-04-16T12:37:58.054Z,47.80
2023-04-16T12:40:25.098Z,47.74
2023-04-16T12:42:52.251Z,47.07
2023-04-16T12:45:19.275Z,46.80
2023-04-16T12:47:46.460Z,47.10
2023-04-16T12:50:13.580Z,46.44
2023-04-16T12:52:40.608Z,46.68
2023-04-16T12:55:07.844Z,46.51
2023-04-16T12:57:34.868Z,46.72
2023-04-16T13:00:01.969Z,46.51
2023-04-16T13:02:29.076Z,46.84
2023-04-16T13:04:56.217Z,46.63
2023-04-16T13:07:24.288Z,46.66
2023-04-16T13:09:51.351Z,46.55
2023-04-16T13:12:19.371Z,46.47
2023-04-16T13:14:46.609Z,46.14
2023-04-16T13:17:15.496Z,46.22
2023-04-16T13:19:42.653Z,45.74
2023-04-16T13:22:11.047Z,44.75
2023-04-16T13:24:38.209Z,44.49
2023-04-16T13:27:05.331Z,44.07
2023-04-16T13:29:32.425Z,44.04
2023-04-16T13:31:59.509Z,43.81
2023-04-16T13:34:26.942Z,43.85
2023-04-16T13:36:54.058Z,44.15
2023-04-16T13:39:21.347Z,44.46
2023-04-16T13:41:48.416Z,44.60
2023-04-16T13:44:15.702Z,44.65
2023-04-16T13:46:42.905Z,44.58
2023-04-16T13:49:10.330Z,44.79
2023-04-16T13:51:45.139Z,44.12
2023-04-16T13:54:12.320Z,43.19
2023-04-16T13:56:39.541Z,42.85
2023-04-16T13:59:06.684Z,43.52
2023-04-16T14:01:37.113Z,43.66
2023-04-16T14:04:04.270Z,43.17
2023-04-16T14:06:31.464Z,43.59
2023-04-16T14:08:58.567Z,43.98
2023-04-16T14:11:25.590Z,44.03
2023-04-16T14:13:55.391Z,44.11
2023-04-16T14:16:22.637Z,43.89
2023-04-16T14:18:49.685Z,43.87
2023-04-16T14:21:16.720Z,44.10
2023-04-16T14:23:43.763Z,44.25
2023-04-16T14:26:10.822Z,44.17
2023-04-16T14:28:37.867Z,44.17
2023-04-16T14:31:05.013Z,43.88
2023-04-16T14:33:32.064Z,43.78
2023-04-16T14:36:01.152Z,44.23
2023-04-16T14:38:29.699Z,44.15
2023-04-16T14:40:56.772Z,44.02
2023-04-16T14:43:23.872Z,44.62
2023-04-16T14:45:53.175Z,44.38
2023-04-16T14:48:20.188Z,44.22
2023-04-16T14:50:47.220Z,44.25
2023-04-16T14:53:14.258Z,44.46
2023-04-16T14:55:41.364Z,44.89
2023-04-16T14:58:09.023Z,45.15
2023-04-16T15:00:36.029Z,45.26
2023-04-16T15:03:03.146Z,45.49
2023-04-16T15:05:30.238Z,45.64
2023-04-16T15:07:57.277Z,45.61
2023-04-16T15:10:24.339Z,45.75
2023-04-16T15:12:51.380Z,45.60
2023-04-16T15:15:18.407Z,45.87
2023-04-16T15:17:46.090Z,45.75
2023-04-16T15:20:13.943Z,45.76
2023-04-16T15:22:40.946Z,46.32
2023-04-16T15:25:07.977Z,46.46
2023-04-16T15:27:35.007Z,46.80
2023-04-16T15:30:02.151Z,46.89
2023-04-16T15:32:29.240Z,47.19
2023-04-16T15:34:56.343Z,47.06
2023-04-16T15:37:23.420Z,47.20
2023-04-16T15:39:50.614Z,47.44
2023-04-16T15:42:17.726Z,47.70
2023-04-16T15:44:44.826Z,47.56
2023-04-16T15:47:11.884Z,47.77
2023-04-16T15:49:38.944Z,47.63
2023-04-16T15:52:06.064Z,47.90
2023-04-16T15:54:33.127Z,48.20
2023-04-16T15:57:00.164Z,48.08
2023-04-16T15:59:27.197Z,48.36
2023-04-16T16:01:54.550Z,48.53
2023-04-16T16:04:22.132Z,48.69
2023-04-16T16:06:49.167Z,49.06
2023-04-16T16:09:16.254Z,49.06
2023-04-16T16:11:43.294Z,49.20
2023-04-16T16:14:10.342Z,48.88
2023-04-16T16:16:37.372Z,49.00
2023-04-16T16:19:04.486Z,48.72
2023-04-16T16:21:31.549Z,48.57
2023-04-16T16:23:58.786Z,48.43
2023-04-16T16:26:25.793Z,48.22
2023-04-16T16:28:52.907Z,47.92
2023-04-16T16:31:19.944Z,47.88
2023-04-16T16:33:47.005Z,47.47
2023-04-16T16:36:14.042Z,47.07
2023-04-16T16:38:41.113Z,46.86
2023-04-16T16:41:08.266Z,46.94
2023-04-16T16:43:35.321Z,46.69
2023-04-16T16:46:02.377Z,46.50
2023-04-16T16:48:29.552Z,46.18
2023-04-16T16:50:56.935Z,45.97
2023-04-16T16:53:24.927Z,46.18
2023-04-16T16:55:51.971Z,46.09
2023-04-16T16:58:19.059Z,45.92
2023-04-16T17:00:46.170Z,45.96
2023-04-16T17:03:13.440Z,45.90
2023-04-16T17:05:41.125Z,45.96
2023-04-16T17:08:08.160Z,45.52
2023-04-16T17:10:35.409Z,45.32
2023-04-16T17:13:02.504Z,45.40
2023-04-16T17:15:29.523Z,45.28
2023-04-16T17:17:56.624Z,44.81
2023-04-16T17:20:23.658Z,44.99
2023-04-16T17:22:50.664Z,44.42
2023-04-16T17:25:17.698Z,44.68
2023-04-16T17:27:44.736Z,44.16
2023-04-16T17:30:11.752Z,44.31
2023-04-16T17:32:38.911Z,43.78
2023-04-16T17:35:05.991Z,43.78
2023-04-16T17:37:33.077Z,43.56
2023-04-16T17:40:00.178Z,43.44
2023-04-16T17:42:27.196Z,43.29
2023-04-16T17:44:54.208Z,43.11
2023-04-16T17:47:21.320Z,42.97
2023-04-16T17:49:48.322Z,42.60
2023-04-16T17:52:15.527Z,42.86
2023-04-16T17:54:42.607Z,42.72
2023-04-16T17:57:09.656Z,42.69
2023-04-16T17:59:36.652Z,42.23
2023-04-16T18:02:03.829Z,42.52
2023-04-16T18:04:31.055Z,42.29
2023-04-16T18:06:58.242Z,42.08
2023-04-16T18:09:25.762Z,42.01
2023-04-16T18:11:52.786Z,42.21
2023-04-16T18:14:19.845Z,41.60
2023-04-16T18:16:46.998Z,41.84
2023-04-16T18:19:14.568Z,42.10
2023-04-16T18:21:41.557Z,41.75
2023-04-16T18:24:08.679Z,41.75
2023-04-16T18:26:36.288Z,41.35
2023-04-16T18:29:04.031Z,41.75
2023-04-16T18:31:31.253Z,41.37
2023-04-16T18:33:58.654Z,41.43
2023-04-16T18:36:26.010Z,41.81
2023-04-16T18:39:01.635Z,41.57
2023-04-16T18:41:29.707Z,41.92
2023-04-16T18:43:56.842Z,41.83
2023-04-16T18:46:24.305Z,42.08
2023-04-16T18:48:51.472Z,41.87
2023-04-16T18:51:18.785Z,41.70
2023-04-16T18:53:45.961Z,41.99
2023-04-16T18:56:13.173Z,41.95
2023-04-16T18:58:40.297Z,41.82
2023-04-16T19:01:07.372Z,41.78
2023-04-16T19:03:34.971Z,41.74
2023-04-16T19:06:02.051Z,41.94
2023-04-16T19:08:29.140Z,41.56
2023-04-16T19:10:56.193Z,41.57
2023-04-16T19:13:23.410Z,41.60
2023-04-16T19:15:50.489Z,41.73
2023-04-16T19:18:17.598Z,41.87
2023-04-16T19:20:44.734Z,41.96
2023-04-16T19:23:11.849Z,42.20
2023-04-16T19:25:38.873Z,42.02
2023-04-16T19:28:05.931Z,42.01
2023-04-16T19:30:33.016Z,42.28
2023-04-16T19:33:00.069Z,41.98
2023-04-16T19:35:27.202Z,42.40
2023-04-16T19:37:54.217Z,42.20
2023-04-16T19:40:21.941Z,41.96
2023-04-16T19:42:48.959Z,42.03
2023-04-16T19:45:16.000Z,42.28
2023-04-16T19:47:43.122Z,42.07
2023-04-16T19:50:10.178Z,42.14
2023-04-16T19:52:37.258Z,42.50
2023-04-16T19:55:04.320Z,42.51
2023-04-16T19:57:31.352Z,42.35
2023-04-16T19:59:58.388Z,42.21
2023-04-16T20:02:25.511Z,42.22
2023-04-16T20:04:52.636Z,42.12
2023-04-16T20:07:19.683Z,42.14
2023-04-16T20:09:46.722Z,42.46
2023-04-16T20:12:13.759Z,42.24
2023-04-16T20:14:40.862Z,42.27
2023-04-16T20:17:08.248Z,42.33
2023-04-16T20:19:35.352Z,42.54
2023-04-16T20:22:02.977Z,42.73
2023-04-16T20:24:30.671Z,42.60
2023-04-16T20:26:57.726Z,42.84
2023-04-16T20:29:24.777Z,43.01
2023-04-16T20:31:51.787Z,43.09
2023-04-16T20:34:18.780Z,43.34
2023-04-16T20:36:45.852Z,43.13
2023-04-16T20:39:13.162Z,43.15
2023-04-16T20:41:40.471Z,43.37
2023-04-16T20:44:07.573Z,42.96
2023-04-16T20:46:34.645Z,43.01
2023-04-16T20:49:01.824Z,43.17
2023-04-16T20:51:28.926Z,43.15
2023-04-16T20:53:56.308Z,42.92
2023-04-16T20:56:23.349Z,42.89
2023-04-16T20:58:50.431Z,42.91
2023-04-16T21:01:17.575Z,42.68
2023-04-16T21:03:44.888Z,42.54
2023-04-16T21:06:12.302Z,42.73
2023-04-16T21:08:39.329Z,42.71
2023-04-16T21:11:06.569Z,42.75
2023-04-16T21:13:33.808Z,42.69
2023-04-16T21:16:00.859Z,42.70
2023-04-16T21:18:28.554Z,42.52
2023-04-16T21:20:55.644Z,42.56
2023-04-16T21:23:22.674Z,42.93
2023-04-16T21:25:49.751Z,43.05
2023-04-16T21:28:16.822Z,42.94
2023-04-16T21:30:43.997Z,43.08
2023-04-16T21:33:11.041Z,43.75
2023-04-16T21:35:38.182Z,43.89
2023-04-16T21:38:05.281Z,44.17
2023-04-16T21:40:32.385Z,44.19
2023-04-16T21:42:59.449Z,44.30
2023-04-16T21:45:26.763Z,44.52
2023-04-16T21:47:54.477Z,44.91
2023-04-16T21:50:21.656Z,44.99
2023-04-16T21:52:48.714Z,45.27
2023-04-16T21:55:15.788Z,45.12
2023-04-16T21:57:42.834Z,45.41
2023-04-16T22:00:09.864Z,45.80
2023-04-16T22:02:37.047Z,45.71
2023-04-16T22:05:04.247Z,46.09
2023-04-16T22:07:31.322Z,46.26
2023-04-16T22:09:58.369Z,46.55
2023-04-16T22:12:26.115Z,46.81
2023-04-16T22:15:02.349Z,46.89
2023-04-16T22:17:30.474Z,47.41
2023-04-16T22:19:59.473Z,47.57
2023-04-16T22:22:26.482Z,48.46
2023-04-16T22:24:53.519Z,48.46
2023-04-16T22:27:20.545Z,48.88
2023-04-16T22:29:47.608Z,49.11
2023-04-16T22:32:14.775Z,49.09
2023-04-16T22:34:41.921Z,49.16
2023-04-16T22:37:08.984Z,49.33
2023-04-16T22:39:36.110Z,49.11
2023-04-16T22:42:03.305Z,49.17
2023-04-16T22:44:30.370Z,49.13
2023-04-16T22:46:57.454Z,49.06
2023-04-16T22:49:25.239Z,49.33
2023-04-16T22:51:52.353Z,49.29
2023-04-16T22:54:20.885Z,49.36
2023-04-16T22:56:48.038Z,49.53
2023-04-16T22:59:15.126Z,49.51
2023-04-16T23:01:42.190Z,49.71
2023-04-16T23:04:09.308Z,49.84
2023-04-16T23:06:36.325Z,49.85
2023-04-16T23:09:03.442Z,49.60
2023-04-16T23:11:30.528Z,49.96
2023-04-16T23:13:57.595Z,49.90
2023-04-16T23:16:24.836Z,49.97
2023-04-16T23:18:51.888Z,49.98
2023-04-16T23:21:18.978Z,50.22
2023-04-16T23:23:46.036Z,50.09
2023-04-16T23:26:13.453Z,50.04
2023-04-16T23:28:40.649Z,50.06
2023-04-16T23:31:07.759Z,50.27
2023-04-16T23:33:34.846Z,50.01
2023-04-16T23:36:01.942Z,50.19
2023-04-16T23:38:29.071Z,50.26
2023-04-16T23:40:56.157Z,50.35
2023-04-16T23:43:23.207Z,50.35
2023-04-16T23:45:51.757Z,50.49
2023-04-16T23:48:18.934Z,50.45
2023-04-16T23:50:46.040Z,50.50
2023-04-16T23:53:13.106Z,50.46
2023-04-16T23:55:40.132Z,50.40
2023-04-16T23:58:07.252Z,50.43
